sensor_id;sensor_type;location;lat;lon;timestamp;temperature;humidity
23251;DHT22;11794;49.730;10.088;2023-09-12T00:00:49;18.30;99.90
23251;DHT22;11794;49.730;10.088;2023-09-12T00:03:18;18.30;99.90
23251;DHT22;11794;49.730;10.088;2023-09-12T00:05:53;18.20;99.90
23251;DHT22;11794;49.730;10.088;2023-09-12T00:08:19;18.10;99.90
23251;DHT22;11794;49.730;10.088;2023-09-12T00:10:45;18.10;99.90
23251;DHT22;11794;49.730;10.088;2023-09-12T00:13:10;18.10;99.90
23251;DHT22;11794;49.730;10.088;2023-09-12T00:15:36;18.00;99.90
23251;DHT22;11794;49.730;10.088;2023-09-12T00:18:02;18.10;99.90
23251;DHT22;11794;49.730;10.088;2023-09-12T00:20:28;18.10;99.90
23251;DHT22;11794;49.730;10.088;2023-09-12T00:22:53;18.00;99.90
23251;DHT22;11794;49.730;10.088;2023-09-12T00:25:20;18.10;99.90
23251;DHT22;11794;49.730;10.088;2023-09-12T00:27:46;18.10;99.90
23251;DHT22;11794;49.730;10.088;2023-09-12T00:30:14;18.00;99.90
23251;DHT22;11794;49.730;10.088;2023-09-12T00:32:40;18.00;99.90
23251;DHT22;11794;49.730;10.088;2023-09-12T00:35:06;17.90;99.90
23251;DHT22;11794;49.730;10.088;2023-09-12T00:37:32;17.90;99.90
23251;DHT22;11794;49.730;10.088;2023-09-12T00:39:58;17.90;99.90
23251;DHT22;11794;49.730;10.088;2023-09-12T00:42:26;17.70;99.90
23251;DHT22;11794;49.730;10.088;2023-09-12T00:44:52;17.70;99.90
23251;DHT22;11794;49.730;10.088;2023-09-12T00:47:18;17.70;99.90
23251;DHT22;11794;49.730;10.088;2023-09-12T00:49:45;17.70;99.90
23251;DHT22;11794;49.730;10.088;2023-09-12T00:52:13;17.80;99.90
23251;DHT22;11794;49.730;10.088;2023-09-12T00:54:39;17.70;99.90
23251;DHT22;11794;49.730;10.088;2023-09-12T00:57:05;17.70;99.90
23251;DHT22;11794;49.730;10.088;2023-09-12T00:59:31;17.70;99.90
23251;DHT22;11794;49.730;10.088;2023-09-12T01:01:57;17.60;99.90
23251;DHT22;11794;49.730;10.088;2023-09-12T01:04:23;17.60;99.90
23251;DHT22;11794;49.730;10.088;2023-09-12T01:06:49;17.70;99.90
23251;DHT22;11794;49.730;10.088;2023-09-12T01:09:14;17.70;99.90
23251;DHT22;11794;49.730;10.088;2023-09-12T01:11:40;17.70;99.90
23251;DHT22;11794;49.730;10.088;2023-09-12T01:14:06;17.80;99.90
23251;DHT22;11794;49.730;10.088;2023-09-12T01:16:32;17.60;99.90
23251;DHT22;11794;49.730;10.088;2023-09-12T01:18:57;17.40;99.90
23251;DHT22;11794;49.730;10.088;2023-09-12T01:21:40;17.30;99.90
23251;DHT22;11794;49.730;10.088;2023-09-12T01:29:52;16.90;99.90
23251;DHT22;11794;49.730;10.088;2023-09-12T01:32:19;16.80;99.90
23251;DHT22;11794;49.730;10.088;2023-09-12T01:34:45;16.90;99.90
23251;DHT22;11794;49.730;10.088;2023-09-12T01:37:11;16.90;99.90
23251;DHT22;11794;49.730;10.088;2023-09-12T01:39:36;16.90;99.90
23251;DHT22;11794;49.730;10.088;2023-09-12T01:42:02;17.10;99.90
23251;DHT22;11794;49.730;10.088;2023-09-12T01:44:29;17.10;99.90
23251;DHT22;11794;49.730;10.088;2023-09-12T01:46:58;17.00;99.90
23251;DHT22;11794;49.730;10.088;2023-09-12T01:49:28;17.00;99.90
23251;DHT22;11794;49.730;10.088;2023-09-12T01:51:54;17.10;99.90
23251;DHT22;11794;49.730;10.088;2023-09-12T01:54:21;17.00;99.90
23251;DHT22;11794;49.730;10.088;2023-09-12T01:56:47;17.00;99.90
23251;DHT22;11794;49.730;10.088;2023-09-12T01:59:13;16.90;99.90
23251;DHT22;11794;49.730;10.088;2023-09-12T02:01:39;16.90;99.90
23251;DHT22;11794;49.730;10.088;2023-09-12T02:04:04;16.80;99.90
23251;DHT22;11794;49.730;10.088;2023-09-12T02:06:34;16.70;99.90
23251;DHT22;11794;49.730;10.088;2023-09-12T02:09:00;16.80;99.90
23251;DHT22;11794;49.730;10.088;2023-09-12T02:11:26;16.80;99.90
23251;DHT22;11794;49.730;10.088;2023-09-12T02:13:52;16.80;99.90
23251;DHT22;11794;49.730;10.088;2023-09-12T02:16:17;16.80;99.90
23251;DHT22;11794;49.730;10.088;2023-09-12T02:18:43;16.80;99.90
23251;DHT22;11794;49.730;10.088;2023-09-12T02:21:09;16.80;99.90
23251;DHT22;11794;49.730;10.088;2023-09-12T02:23:34;16.90;99.90
23251;DHT22;11794;49.730;10.088;2023-09-12T02:26:00;17.00;99.90
23251;DHT22;11794;49.730;10.088;2023-09-12T02:28:25;16.90;99.90
23251;DHT22;11794;49.730;10.088;2023-09-12T02:30:51;16.90;99.90
23251;DHT22;11794;49.730;10.088;2023-09-12T02:33:16;16.80;99.90
23251;DHT22;11794;49.730;10.088;2023-09-12T02:35:42;16.70;99.90
23251;DHT22;11794;49.730;10.088;2023-09-12T02:38:07;16.60;99.90
23251;DHT22;11794;49.730;10.088;2023-09-12T02:40:33;16.60;99.90
23251;DHT22;11794;49.730;10.088;2023-09-12T02:42:58;16.60;99.90
23251;DHT22;11794;49.730;10.088;2023-09-12T02:45:24;16.50;99.90
23251;DHT22;11794;49.730;10.088;2023-09-12T02:47:49;16.50;99.90
23251;DHT22;11794;49.730;10.088;2023-09-12T02:50:15;16.50;99.90
23251;DHT22;11794;49.730;10.088;2023-09-12T02:52:40;16.50;99.90
23251;DHT22;11794;49.730;10.088;2023-09-12T02:55:06;16.50;99.90
23251;DHT22;11794;49.730;10.088;2023-09-12T02:57:32;16.50;99.90
23251;DHT22;11794;49.730;10.088;2023-09-12T02:59:58;16.50;99.90
23251;DHT22;11794;49.730;10.088;2023-09-12T03:02:23;16.40;99.90
23251;DHT22;11794;49.730;10.088;2023-09-12T03:04:49;16.30;99.90
23251;DHT22;11794;49.730;10.088;2023-09-12T03:07:15;16.20;99.90
23251;DHT22;11794;49.730;10.088;2023-09-12T03:09:40;16.00;99.90
23251;DHT22;11794;49.730;10.088;2023-09-12T03:12:06;15.90;99.90
23251;DHT22;11794;49.730;10.088;2023-09-12T03:14:31;15.90;99.90
23251;DHT22;11794;49.730;10.088;2023-09-12T03:16:57;15.90;99.90
23251;DHT22;11794;49.730;10.088;2023-09-12T03:19:22;16.10;99.90
23251;DHT22;11794;49.730;10.088;2023-09-12T03:21:48;16.00;99.90
23251;DHT22;11794;49.730;10.088;2023-09-12T03:24:13;16.00;99.90
23251;DHT22;11794;49.730;10.088;2023-09-12T03:26:39;16.00;99.90
23251;DHT22;11794;49.730;10.088;2023-09-12T03:29:05;15.90;99.90
23251;DHT22;11794;49.730;10.088;2023-09-12T03:31:30;15.90;99.90
23251;DHT22;11794;49.730;10.088;2023-09-12T03:33:56;15.90;99.90
23251;DHT22;11794;49.730;10.088;2023-09-12T03:36:22;15.80;99.90
23251;DHT22;11794;49.730;10.088;2023-09-12T03:38:47;15.80;99.90
23251;DHT22;11794;49.730;10.088;2023-09-12T03:41:13;15.70;99.90
23251;DHT22;11794;49.730;10.088;2023-09-12T03:43:38;15.70;99.90
23251;DHT22;11794;49.730;10.088;2023-09-12T03:46:04;15.60;99.90
23251;DHT22;11794;49.730;10.088;2023-09-12T03:48:30;15.60;99.90
23251;DHT22;11794;49.730;10.088;2023-09-12T03:50:59;15.70;99.90
23251;DHT22;11794;49.730;10.088;2023-09-12T03:53:24;15.80;99.90
23251;DHT22;11794;49.730;10.088;2023-09-12T03:55:52;15.70;99.90
23251;DHT22;11794;49.730;10.088;2023-09-12T03:58:17;15.80;99.90
23251;DHT22;11794;49.730;10.088;2023-09-12T04:00:43;15.80;99.90
23251;DHT22;11794;49.730;10.088;2023-09-12T04:03:09;15.70;99.90
23251;DHT22;11794;49.730;10.088;2023-09-12T04:05:34;15.70;99.90
23251;DHT22;11794;49.730;10.088;2023-09-12T04:08:00;15.70;99.90
23251;DHT22;11794;49.730;10.088;2023-09-12T04:10:25;15.70;99.90
23251;DHT22;11794;49.730;10.088;2023-09-12T04:12:51;15.70;99.90
23251;DHT22;11794;49.730;10.088;2023-09-12T04:15:17;15.60;99.90
23251;DHT22;11794;49.730;10.088;2023-09-12T04:17:42;15.60;99.90
23251;DHT22;11794;49.730;10.088;2023-09-12T04:20:08;15.60;99.90
23251;DHT22;11794;49.730;10.088;2023-09-12T04:22:34;15.50;99.90
23251;DHT22;11794;49.730;10.088;2023-09-12T04:24:59;15.70;99.90
23251;DHT22;11794;49.730;10.088;2023-09-12T04:27:25;15.60;99.90
23251;DHT22;11794;49.730;10.088;2023-09-12T04:29:50;15.50;99.90
23251;DHT22;11794;49.730;10.088;2023-09-12T04:32:16;15.30;99.90
23251;DHT22;11794;49.730;10.088;2023-09-12T04:34:51;15.30;99.90
23251;DHT22;11794;49.730;10.088;2023-09-12T04:37:17;15.20;99.90
23251;DHT22;11794;49.730;10.088;2023-09-12T04:39:42;15.30;99.90
23251;DHT22;11794;49.730;10.088;2023-09-12T04:42:08;15.30;99.90
23251;DHT22;11794;49.730;10.088;2023-09-12T04:44:40;15.30;99.90
23251;DHT22;11794;49.730;10.088;2023-09-12T04:47:06;15.30;99.90
23251;DHT22;11794;49.730;10.088;2023-09-12T04:49:31;15.30;99.90
23251;DHT22;11794;49.730;10.088;2023-09-12T04:51:57;15.30;99.90
23251;DHT22;11794;49.730;10.088;2023-09-12T04:54:22;15.20;99.90
23251;DHT22;11794;49.730;10.088;2023-09-12T04:56:48;15.30;99.90
23251;DHT22;11794;49.730;10.088;2023-09-12T04:59:13;15.30;99.90
23251;DHT22;11794;49.730;10.088;2023-09-12T05:01:40;15.40;99.90
23251;DHT22;11794;49.730;10.088;2023-09-12T05:04:05;15.40;99.90
23251;DHT22;11794;49.730;10.088;2023-09-12T05:06:31;15.40;99.90
23251;DHT22;11794;49.730;10.088;2023-09-12T05:08:56;15.50;99.90
23251;DHT22;11794;49.730;10.088;2023-09-12T05:11:22;15.50;99.90
23251;DHT22;11794;49.730;10.088;2023-09-12T05:13:49;15.60;99.90
23251;DHT22;11794;49.730;10.088;2023-09-12T05:16:15;15.50;99.90
23251;DHT22;11794;49.730;10.088;2023-09-12T05:18:40;15.50;99.90
23251;DHT22;11794;49.730;10.088;2023-09-12T05:21:06;15.40;99.90
23251;DHT22;11794;49.730;10.088;2023-09-12T05:23:31;15.40;99.90
23251;DHT22;11794;49.730;10.088;2023-09-12T05:25:57;15.50;99.90
23251;DHT22;11794;49.730;10.088;2023-09-12T05:28:22;15.60;99.90
23251;DHT22;11794;49.730;10.088;2023-09-12T05:30:48;15.60;99.90
23251;DHT22;11794;49.730;10.088;2023-09-12T05:33:14;15.60;99.90
23251;DHT22;11794;49.730;10.088;2023-09-12T05:35:39;15.60;99.90
23251;DHT22;11794;49.730;10.088;2023-09-12T05:38:05;15.70;99.90
23251;DHT22;11794;49.730;10.088;2023-09-12T05:40:31;15.80;99.90
23251;DHT22;11794;49.730;10.088;2023-09-12T05:42:56;15.80;99.90
23251;DHT22;11794;49.730;10.088;2023-09-12T05:45:22;15.90;99.90
23251;DHT22;11794;49.730;10.088;2023-09-12T05:47:48;15.90;99.90
23251;DHT22;11794;49.730;10.088;2023-09-12T05:50:15;16.00;99.90
23251;DHT22;11794;49.730;10.088;2023-09-12T05:52:41;16.10;99.90
23251;DHT22;11794;49.730;10.088;2023-09-12T05:55:08;16.20;99.90
23251;DHT22;11794;49.730;10.088;2023-09-12T05:57:34;16.20;99.90
23251;DHT22;11794;49.730;10.088;2023-09-12T06:00:00;16.20;99.90
23251;DHT22;11794;49.730;10.088;2023-09-12T06:02:27;16.10;99.90
23251;DHT22;11794;49.730;10.088;2023-09-12T06:04:53;16.10;99.90
23251;DHT22;11794;49.730;10.088;2023-09-12T06:07:18;16.20;99.90
23251;DHT22;11794;49.730;10.088;2023-09-12T06:09:44;16.20;99.90
23251;DHT22;11794;49.730;10.088;2023-09-12T06:12:10;16.40;99.90
23251;DHT22;11794;49.730;10.088;2023-09-12T06:14:35;16.50;99.90
23251;DHT22;11794;49.730;10.088;2023-09-12T06:17:01;16.50;99.90
23251;DHT22;11794;49.730;10.088;2023-09-12T06:19:27;16.60;99.90
23251;DHT22;11794;49.730;10.088;2023-09-12T06:21:52;16.80;99.90
23251;DHT22;11794;49.730;10.088;2023-09-12T06:24:21;17.00;99.90
23251;DHT22;11794;49.730;10.088;2023-09-12T06:26:47;17.20;99.90
23251;DHT22;11794;49.730;10.088;2023-09-12T06:29:13;17.30;99.90
23251;DHT22;11794;49.730;10.088;2023-09-12T06:31:39;17.40;99.90
23251;DHT22;11794;49.730;10.088;2023-09-12T06:34:07;17.60;99.90
23251;DHT22;11794;49.730;10.088;2023-09-12T06:36:32;17.70;99.90
23251;DHT22;11794;49.730;10.088;2023-09-12T06:38:59;17.90;99.90
23251;DHT22;11794;49.730;10.088;2023-09-12T06:41:25;18.10;99.90
23251;DHT22;11794;49.730;10.088;2023-09-12T06:43:51;18.20;99.90
23251;DHT22;11794;49.730;10.088;2023-09-12T06:46:17;18.40;99.90
23251;DHT22;11794;49.730;10.088;2023-09-12T06:48:46;18.60;99.90
23251;DHT22;11794;49.730;10.088;2023-09-12T06:51:12;18.60;99.90
23251;DHT22;11794;49.730;10.088;2023-09-12T06:53:38;18.80;99.90
23251;DHT22;11794;49.730;10.088;2023-09-12T06:56:04;19.00;99.90
23251;DHT22;11794;49.730;10.088;2023-09-12T06:58:30;19.20;99.90
23251;DHT22;11794;49.730;10.088;2023-09-12T07:00:55;19.30;99.90
23251;DHT22;11794;49.730;10.088;2023-09-12T07:03:21;19.40;99.90
23251;DHT22;11794;49.730;10.088;2023-09-12T07:05:46;19.60;99.90
23251;DHT22;11794;49.730;10.088;2023-09-12T07:08:14;19.80;99.90
23251;DHT22;11794;49.730;10.088;2023-09-12T07:10:45;20.00;99.90
23251;DHT22;11794;49.730;10.088;2023-09-12T07:13:11;20.40;99.90
23251;DHT22;11794;49.730;10.088;2023-09-12T07:15:37;20.70;99.90
23251;DHT22;11794;49.730;10.088;2023-09-12T07:18:03;21.10;99.90
23251;DHT22;11794;49.730;10.088;2023-09-12T07:20:29;21.40;99.90
23251;DHT22;11794;49.730;10.088;2023-09-12T07:22:55;21.70;99.90
23251;DHT22;11794;49.730;10.088;2023-09-12T07:25:21;21.90;99.90
23251;DHT22;11794;49.730;10.088;2023-09-12T07:27:49;21.70;99.90
23251;DHT22;11794;49.730;10.088;2023-09-12T07:30:15;21.80;99.90
23251;DHT22;11794;49.730;10.088;2023-09-12T07:32:40;21.80;99.90
23251;DHT22;11794;49.730;10.088;2023-09-12T07:35:06;21.70;99.90
23251;DHT22;11794;49.730;10.088;2023-09-12T07:37:32;21.80;99.90
23251;DHT22;11794;49.730;10.088;2023-09-12T07:39:57;21.80;99.90
23251;DHT22;11794;49.730;10.088;2023-09-12T07:42:23;21.90;99.90
23251;DHT22;11794;49.730;10.088;2023-09-12T07:44:49;22.00;99.90
23251;DHT22;11794;49.730;10.088;2023-09-12T07:47:15;22.00;99.90
23251;DHT22;11794;49.730;10.088;2023-09-12T07:49:40;22.00;99.90
23251;DHT22;11794;49.730;10.088;2023-09-12T07:52:06;22.10;99.90
23251;DHT22;11794;49.730;10.088;2023-09-12T07:54:32;22.30;99.90
23251;DHT22;11794;49.730;10.088;2023-09-12T07:56:57;22.70;99.90
23251;DHT22;11794;49.730;10.088;2023-09-12T07:59:23;23.20;99.90
23251;DHT22;11794;49.730;10.088;2023-09-12T08:01:49;24.10;99.90
23251;DHT22;11794;49.730;10.088;2023-09-12T08:04:14;25.00;99.90
23251;DHT22;11794;49.730;10.088;2023-09-12T08:06:40;25.50;99.90
23251;DHT22;11794;49.730;10.088;2023-09-12T08:09:07;26.20;99.90
23251;DHT22;11794;49.730;10.088;2023-09-12T08:11:33;27.00;99.90
23251;DHT22;11794;49.730;10.088;2023-09-12T08:13:59;27.70;99.90
23251;DHT22;11794;49.730;10.088;2023-09-12T08:16:24;28.40;99.90
23251;DHT22;11794;49.730;10.088;2023-09-12T08:18:50;29.00;99.90
23251;DHT22;11794;49.730;10.088;2023-09-12T08:21:15;29.60;99.90
23251;DHT22;11794;49.730;10.088;2023-09-12T08:23:41;29.80;99.90
23251;DHT22;11794;49.730;10.088;2023-09-12T08:26:06;30.10;99.90
23251;DHT22;11794;49.730;10.088;2023-09-12T08:28:32;30.50;99.60
23251;DHT22;11794;49.730;10.088;2023-09-12T08:30:57;31.00;99.40
23251;DHT22;11794;49.730;10.088;2023-09-12T08:33:23;31.20;97.60
23251;DHT22;11794;49.730;10.088;2023-09-12T08:35:49;30.90;97.70
23251;DHT22;11794;49.730;10.088;2023-09-12T08:38:15;30.10;98.30
23251;DHT22;11794;49.730;10.088;2023-09-12T08:40:48;29.70;99.20
23251;DHT22;11794;49.730;10.088;2023-09-12T08:43:14;29.30;99.80
23251;DHT22;11794;49.730;10.088;2023-09-12T08:45:40;29.70;99.80
23251;DHT22;11794;49.730;10.088;2023-09-12T08:48:06;30.20;98.60
23251;DHT22;11794;49.730;10.088;2023-09-12T08:50:32;30.80;97.60
23251;DHT22;11794;49.730;10.088;2023-09-12T08:52:59;31.60;96.60
23251;DHT22;11794;49.730;10.088;2023-09-12T08:55:25;32.10;95.90
23251;DHT22;11794;49.730;10.088;2023-09-12T08:57:51;32.00;95.80
23251;DHT22;11794;49.730;10.088;2023-09-12T09:00:17;32.40;96.00
23251;DHT22;11794;49.730;10.088;2023-09-12T09:02:43;32.30;95.00
23251;DHT22;11794;49.730;10.088;2023-09-12T09:05:11;32.30;94.30
23251;DHT22;11794;49.730;10.088;2023-09-12T09:07:40;32.20;94.90
23251;DHT22;11794;49.730;10.088;2023-09-12T09:10:07;32.10;94.50
23251;DHT22;11794;49.730;10.088;2023-09-12T09:12:34;31.80;94.70
23251;DHT22;11794;49.730;10.088;2023-09-12T09:15:22;31.50;95.00
23251;DHT22;11794;49.730;10.088;2023-09-12T09:17:49;31.40;95.30
23251;DHT22;11794;49.730;10.088;2023-09-12T09:20:33;31.00;94.60
23251;DHT22;11794;49.730;10.088;2023-09-12T09:23:07;30.90;96.30
23251;DHT22;11794;49.730;10.088;2023-09-12T09:25:39;31.20;95.70
23251;DHT22;11794;49.730;10.088;2023-09-12T09:28:15;31.70;95.50
23251;DHT22;11794;49.730;10.088;2023-09-12T09:30:43;32.70;94.60
23251;DHT22;11794;49.730;10.088;2023-09-12T09:33:10;33.60;93.30
23251;DHT22;11794;49.730;10.088;2023-09-12T09:35:36;34.30;92.20
23251;DHT22;11794;49.730;10.088;2023-09-12T09:38:03;34.40;91.90
23251;DHT22;11794;49.730;10.088;2023-09-12T09:40:31;34.60;91.30
23251;DHT22;11794;49.730;10.088;2023-09-12T09:42:59;34.70;90.20
23251;DHT22;11794;49.730;10.088;2023-09-12T09:45:26;34.70;91.00
23251;DHT22;11794;49.730;10.088;2023-09-12T09:47:51;34.90;90.20
23251;DHT22;11794;49.730;10.088;2023-09-12T09:50:17;34.80;89.20
23251;DHT22;11794;49.730;10.088;2023-09-12T09:52:43;35.00;87.90
23251;DHT22;11794;49.730;10.088;2023-09-12T09:55:19;35.20;89.40
23251;DHT22;11794;49.730;10.088;2023-09-12T09:57:45;35.20;87.10
23251;DHT22;11794;49.730;10.088;2023-09-12T10:00:10;35.70;87.20
23251;DHT22;11794;49.730;10.088;2023-09-12T10:02:40;35.70;86.50
23251;DHT22;11794;49.730;10.088;2023-09-12T10:05:09;35.90;85.70
23251;DHT22;11794;49.730;10.088;2023-09-12T10:07:37;36.40;85.50
23251;DHT22;11794;49.730;10.088;2023-09-12T10:10:04;36.70;83.40
23251;DHT22;11794;49.730;10.088;2023-09-12T10:12:31;36.80;84.30
23251;DHT22;11794;49.730;10.088;2023-09-12T10:15:01;37.20;82.10
23251;DHT22;11794;49.730;10.088;2023-09-12T10:17:35;37.50;79.40
23251;DHT22;11794;49.730;10.088;2023-09-12T10:20:03;37.50;78.20
23251;DHT22;11794;49.730;10.088;2023-09-12T10:25:17;36.80;79.10
23251;DHT22;11794;49.730;10.088;2023-09-12T10:27:42;37.50;78.40
23251;DHT22;11794;49.730;10.088;2023-09-12T10:30:08;37.50;78.30
23251;DHT22;11794;49.730;10.088;2023-09-12T10:32:34;37.60;78.20
23251;DHT22;11794;49.730;10.088;2023-09-12T10:35:02;38.20;75.80
23251;DHT22;11794;49.730;10.088;2023-09-12T10:37:29;38.40;75.30
23251;DHT22;11794;49.730;10.088;2023-09-12T10:39:58;38.20;74.50
23251;DHT22;11794;49.730;10.088;2023-09-12T10:42:26;38.40;73.10
23251;DHT22;11794;49.730;10.088;2023-09-12T10:44:54;38.80;74.80
23251;DHT22;11794;49.730;10.088;2023-09-12T10:47:21;39.20;74.30
23251;DHT22;11794;49.730;10.088;2023-09-12T10:49:48;39.60;72.60
23251;DHT22;11794;49.730;10.088;2023-09-12T10:52:26;39.60;72.20
23251;DHT22;11794;49.730;10.088;2023-09-12T10:54:52;39.80;71.20
23251;DHT22;11794;49.730;10.088;2023-09-12T10:57:19;40.20;69.30
23251;DHT22;11794;49.730;10.088;2023-09-12T11:02:38;40.20;69.50
23251;DHT22;11794;49.730;10.088;2023-09-12T11:05:06;40.40;67.40
23251;DHT22;11794;49.730;10.088;2023-09-12T11:12:42;39.80;70.00
23251;DHT22;11794;49.730;10.088;2023-09-12T11:15:09;40.00;65.60
23251;DHT22;11794;49.730;10.088;2023-09-12T11:18:02;40.20;66.30
23251;DHT22;11794;49.730;10.088;2023-09-12T11:23:23;40.40;64.40
23251;DHT22;11794;49.730;10.088;2023-09-12T11:25:48;40.40;64.10
23251;DHT22;11794;49.730;10.088;2023-09-12T11:28:14;40.50;65.60
23251;DHT22;11794;49.730;10.088;2023-09-12T11:30:55;39.70;63.40
23251;DHT22;11794;49.730;10.088;2023-09-12T11:33:24;39.80;64.40
23251;DHT22;11794;49.730;10.088;2023-09-12T11:35:55;39.60;63.90
23251;DHT22;11794;49.730;10.088;2023-09-12T11:38:29;39.60;65.80
23251;DHT22;11794;49.730;10.088;2023-09-12T11:40:56;40.10;65.60
23251;DHT22;11794;49.730;10.088;2023-09-12T11:43:23;40.50;65.20
23251;DHT22;11794;49.730;10.088;2023-09-12T11:45:49;40.80;63.30
23251;DHT22;11794;49.730;10.088;2023-09-12T11:48:16;41.00;63.90
23251;DHT22;11794;49.730;10.088;2023-09-12T11:50:42;41.30;63.60
23251;DHT22;11794;49.730;10.088;2023-09-12T11:53:12;41.30;61.80
23251;DHT22;11794;49.730;10.088;2023-09-12T11:55:48;41.20;62.90
23251;DHT22;11794;49.730;10.088;2023-09-12T11:58:15;41.60;62.50
23251;DHT22;11794;49.730;10.088;2023-09-12T12:00:59;41.40;62.30
23251;DHT22;11794;49.730;10.088;2023-09-12T12:03:26;40.80;61.50
23251;DHT22;11794;49.730;10.088;2023-09-12T12:05:56;40.70;62.60
23251;DHT22;11794;49.730;10.088;2023-09-12T12:08:21;41.50;60.50
23251;DHT22;11794;49.730;10.088;2023-09-12T12:10:51;41.40;59.80
23251;DHT22;11794;49.730;10.088;2023-09-12T12:13:18;41.30;60.20
23251;DHT22;11794;49.730;10.088;2023-09-12T12:15:43;41.00;60.10
23251;DHT22;11794;49.730;10.088;2023-09-12T12:18:09;41.20;62.10
23251;DHT22;11794;49.730;10.088;2023-09-12T12:20:34;41.70;61.60
23251;DHT22;11794;49.730;10.088;2023-09-12T12:23:00;42.60;60.00
23251;DHT22;11794;49.730;10.088;2023-09-12T12:25:26;43.10;58.10
23251;DHT22;11794;49.730;10.088;2023-09-12T12:27:52;42.30;59.40
23251;DHT22;11794;49.730;10.088;2023-09-12T12:30:18;41.90;59.10
23251;DHT22;11794;49.730;10.088;2023-09-12T12:32:46;41.80;59.20
23251;DHT22;11794;49.730;10.088;2023-09-12T12:35:22;41.40;59.00
23251;DHT22;11794;49.730;10.088;2023-09-12T12:37:49;41.60;59.90
23251;DHT22;11794;49.730;10.088;2023-09-12T12:40:15;42.10;58.00
23251;DHT22;11794;49.730;10.088;2023-09-12T12:42:43;41.90;57.90
23251;DHT22;11794;49.730;10.088;2023-09-12T12:45:20;41.90;58.20
23251;DHT22;11794;49.730;10.088;2023-09-12T12:47:46;42.10;58.30
23251;DHT22;11794;49.730;10.088;2023-09-12T12:50:17;42.80;59.00
23251;DHT22;11794;49.730;10.088;2023-09-12T12:52:47;43.30;56.70
23251;DHT22;11794;49.730;10.088;2023-09-12T12:55:13;44.10;56.00
23251;DHT22;11794;49.730;10.088;2023-09-12T12:57:41;44.70;56.70
23251;DHT22;11794;49.730;10.088;2023-09-12T13:00:08;45.20;54.50
23251;DHT22;11794;49.730;10.088;2023-09-12T13:02:36;44.90;53.80
23251;DHT22;11794;49.730;10.088;2023-09-12T13:05:02;44.30;54.80
23251;DHT22;11794;49.730;10.088;2023-09-12T13:07:27;44.80;55.20
23251;DHT22;11794;49.730;10.088;2023-09-12T13:09:53;45.00;52.80
23251;DHT22;11794;49.730;10.088;2023-09-12T13:12:19;44.20;52.70
23251;DHT22;11794;49.730;10.088;2023-09-12T13:14:44;44.60;53.70
23251;DHT22;11794;49.730;10.088;2023-09-12T13:17:10;45.40;52.60
23251;DHT22;11794;49.730;10.088;2023-09-12T13:19:36;46.00;51.00
23251;DHT22;11794;49.730;10.088;2023-09-12T13:22:01;45.80;51.80
23251;DHT22;11794;49.730;10.088;2023-09-12T13:24:28;44.90;51.80
23251;DHT22;11794;49.730;10.088;2023-09-12T13:26:53;44.30;52.50
23251;DHT22;11794;49.730;10.088;2023-09-12T13:29:19;45.10;54.20
23251;DHT22;11794;49.730;10.088;2023-09-12T13:31:45;45.40;52.50
23251;DHT22;11794;49.730;10.088;2023-09-12T13:34:11;44.60;52.20
23251;DHT22;11794;49.730;10.088;2023-09-12T13:36:36;44.70;52.80
23251;DHT22;11794;49.730;10.088;2023-09-12T13:39:02;45.30;52.60
23251;DHT22;11794;49.730;10.088;2023-09-12T13:41:28;45.50;52.10
23251;DHT22;11794;49.730;10.088;2023-09-12T13:43:53;45.20;51.30
23251;DHT22;11794;49.730;10.088;2023-09-12T13:46:19;44.50;52.00
23251;DHT22;11794;49.730;10.088;2023-09-12T13:48:44;44.70;52.40
23251;DHT22;11794;49.730;10.088;2023-09-12T13:51:10;45.20;51.90
23251;DHT22;11794;49.730;10.088;2023-09-12T13:53:35;45.60;51.30
23251;DHT22;11794;49.730;10.088;2023-09-12T13:56:01;45.20;50.20
23251;DHT22;11794;49.730;10.088;2023-09-12T13:58:27;44.10;50.80
23251;DHT22;11794;49.730;10.088;2023-09-12T14:00:53;43.80;50.50
23251;DHT22;11794;49.730;10.088;2023-09-12T14:03:18;43.70;51.20
23251;DHT22;11794;49.730;10.088;2023-09-12T14:05:44;43.20;52.50
23251;DHT22;11794;49.730;10.088;2023-09-12T14:08:09;43.30;52.40
23251;DHT22;11794;49.730;10.088;2023-09-12T14:10:35;43.20;51.50
23251;DHT22;11794;49.730;10.088;2023-09-12T14:13:01;42.90;52.60
23251;DHT22;11794;49.730;10.088;2023-09-12T14:15:26;42.50;53.20
23251;DHT22;11794;49.730;10.088;2023-09-12T14:17:52;41.70;54.00
23251;DHT22;11794;49.730;10.088;2023-09-12T14:20:17;40.70;54.80
23251;DHT22;11794;49.730;10.088;2023-09-12T14:22:43;39.60;57.30
23251;DHT22;11794;49.730;10.088;2023-09-12T14:25:10;38.60;58.20
23251;DHT22;11794;49.730;10.088;2023-09-12T14:27:41;37.90;59.90
23251;DHT22;11794;49.730;10.088;2023-09-12T14:30:08;37.50;60.00
23251;DHT22;11794;49.730;10.088;2023-09-12T14:32:34;37.40;60.00
23251;DHT22;11794;49.730;10.088;2023-09-12T14:34:59;37.50;61.20
23251;DHT22;11794;49.730;10.088;2023-09-12T14:37:25;37.80;61.20
23251;DHT22;11794;49.730;10.088;2023-09-12T14:39:53;37.90;61.20
23251;DHT22;11794;49.730;10.088;2023-09-12T14:42:18;37.80;59.60
23251;DHT22;11794;49.730;10.088;2023-09-12T14:44:44;37.70;58.20
23251;DHT22;11794;49.730;10.088;2023-09-12T14:47:09;37.90;58.50
23251;DHT22;11794;49.730;10.088;2023-09-12T14:49:35;38.40;57.70
23251;DHT22;11794;49.730;10.088;2023-09-12T14:52:01;38.20;57.90
23251;DHT22;11794;49.730;10.088;2023-09-12T14:54:26;37.80;58.70
23251;DHT22;11794;49.730;10.088;2023-09-12T14:56:52;37.30;59.20
23251;DHT22;11794;49.730;10.088;2023-09-12T14:59:17;36.50;59.60
23251;DHT22;11794;49.730;10.088;2023-09-12T15:01:43;35.70;60.90
23251;DHT22;11794;49.730;10.088;2023-09-12T15:04:10;34.80;62.50
23251;DHT22;11794;49.730;10.088;2023-09-12T15:06:36;35.10;62.80
23251;DHT22;11794;49.730;10.088;2023-09-12T15:09:02;35.10;63.20
23251;DHT22;11794;49.730;10.088;2023-09-12T15:11:27;34.90;63.70
23251;DHT22;11794;49.730;10.088;2023-09-12T15:13:53;34.70;64.20
23251;DHT22;11794;49.730;10.088;2023-09-12T15:16:18;34.70;64.20
23251;DHT22;11794;49.730;10.088;2023-09-12T15:18:45;34.60;64.50
23251;DHT22;11794;49.730;10.088;2023-09-12T15:21:11;34.60;65.50
23251;DHT22;11794;49.730;10.088;2023-09-12T15:23:36;34.50;66.10
23251;DHT22;11794;49.730;10.088;2023-09-12T15:26:02;34.30;65.30
23251;DHT22;11794;49.730;10.088;2023-09-12T15:28:28;34.10;65.60
23251;DHT22;11794;49.730;10.088;2023-09-12T15:30:54;34.00;66.40